Time;durP1;ratioP1;P1;durP2;ratioP2;P2;SDS_P1;SDS_P2;PMS_P1;PMS_P2;Temp;Humidity;BMP_temperature;BMP_pressure;BME280_temperature;BME280_humidity;BME280_pressure;Samples;Min_cycle;Max_cycle;Signal;HPM_P1;HPM_P2
2021/10/31 00:02:10;;;;;;;24.77;14.30;;;12.20;99.90;;;;;;5050235;28;20998;-63
2021/10/31 00:04:37;;;;;;;26.13;13.70;;;12.10;99.90;;;;;;5056316;28;20435;-59
2021/10/31 00:07:04;;;;;;;24.00;13.20;;;12.20;99.90;;;;;;5057378;28;20419;-64
2021/10/31 00:09:31;;;;;;;16.60;13.30;;;12.10;99.90;;;;;;5056648;28;20470;-64
2021/10/31 00:11:58;;;;;;;24.47;12.90;;;12.10;99.90;;;;;;5056867;28;20827;-64
2021/10/31 00:14:26;;;;;;;14.73;11.97;;;12.10;99.90;;;;;;5056953;28;20825;-65
2021/10/31 00:16:58;;;;;;;25.53;14.00;;;12.10;99.90;;;;;;5058670;28;20556;-63
2021/10/31 00:19:25;;;;;;;16.50;11.43;;;12.10;99.90;;;;;;5060531;28;20427;-64
2021/10/31 00:21:51;;;;;;;19.97;13.67;;;12.10;99.90;;;;;;5056533;28;20812;-64
2021/10/31 00:24:18;;;;;;;20.93;13.80;;;12.10;99.90;;;;;;5054601;28;20544;-63
2021/10/31 00:26:45;;;;;;;22.37;13.50;;;12.10;99.90;;;;;;5051910;28;20443;-64
2021/10/31 00:29:12;;;;;;;21.50;11.90;;;12.10;99.90;;;;;;5053964;28;20462;-62
2021/10/31 00:31:40;;;;;;;18.63;12.00;;;12.20;99.90;;;;;;5054869;28;20443;-62
2021/10/31 00:34:07;;;;;;;23.00;12.50;;;12.30;99.90;;;;;;5058001;28;20534;-67
2021/10/31 00:36:34;;;;;;;20.70;12.57;;;12.30;99.90;;;;;;5058012;28;20451;-64
2021/10/31 00:39:00;;;;;;;20.23;12.03;;;12.40;99.90;;;;;;5057696;28;20467;-62
2021/10/31 00:41:27;;;;;;;15.70;10.50;;;12.40;99.90;;;;;;5057662;28;20492;-62
2021/10/31 00:43:54;;;;;;;20.10;13.07;;;12.50;99.90;;;;;;5057702;28;20499;-64
2021/10/31 00:46:20;;;;;;;19.57;12.00;;;12.60;99.90;;;;;;5057559;28;20962;-64
2021/10/31 00:48:49;;;;;;;20.60;12.70;;;12.60;99.90;;;;;;5057954;28;20900;-64
2021/10/31 00:51:17;;;;;;;17.40;13.07;;;12.60;99.90;;;;;;5057867;28;20494;-63
2021/10/31 00:53:45;;;;;;;17.20;10.70;;;12.50;99.90;;;;;;5057733;28;20443;-65
2021/10/31 00:56:12;;;;;;;18.33;11.67;;;12.60;99.90;;;;;;5060127;28;20451;-67
2021/10/31 00:58:39;;;;;;;19.80;11.83;;;12.50;99.90;;;;;;5059206;28;20512;-65
2021/10/31 01:01:05;;;;;;;20.10;11.70;;;12.50;99.90;;;;;;5057666;28;20474;-64
2021/10/31 01:03:32;;;;;;;16.73;11.17;;;12.50;99.90;;;;;;5057487;28;20483;-63
2021/10/31 01:06:33;;;;;;;22.10;13.33;;;12.50;99.90;;;;;;5057408;28;20525;-64
2021/10/31 01:09:04;;;;;;;16.70;10.80;;;12.40;99.90;;;;;;5056723;28;20434;-66
2021/10/31 01:11:41;;;;;;;16.37;10.13;;;12.50;99.90;;;;;;5056533;28;20467;-64
2021/10/31 01:14:24;;;;;;;22.37;11.30;;;12.50;99.90;;;;;;5059320;28;20431;-64
2021/10/31 01:17:03;;;;;;;16.50;10.60;;;12.60;99.90;;;;;;5059068;28;20428;-65
2021/10/31 01:19:45;;;;;;;22.43;11.27;;;12.60;99.90;;;;;;5057084;28;20880;-65
2021/10/31 01:22:31;;;;;;;16.57;10.60;;;12.60;99.90;;;;;;5056819;28;20431;-65
2021/10/31 01:25:21;;;;;;;18.53;11.97;;;12.70;99.90;;;;;;5057301;28;20523;-64
2021/10/31 01:27:59;;;;;;;17.37;11.57;;;12.70;99.90;;;;;;5057056;28;20442;-60
2021/10/31 01:30:37;;;;;;;18.77;12.57;;;12.70;99.90;;;;;;5056955;28;20428;-65
2021/10/31 01:33:11;;;;;;;16.07;10.60;;;12.60;99.90;;;;;;5057061;28;20428;-66
2021/10/31 01:35:52;;;;;;;16.83;11.23;;;12.70;99.90;;;;;;5056963;28;20474;-64
2021/10/31 01:38:40;;;;;;;19.10;12.67;;;12.70;99.90;;;;;;5057046;28;20435;-63
2021/10/31 01:41:11;;;;;;;17.93;11.40;;;12.70;99.90;;;;;;5057960;28;20443;-61
2021/10/31 01:43:50;;;;;;;17.80;10.90;;;12.70;99.90;;;;;;5057028;28;20467;-62
2021/10/31 01:46:28;;;;;;;21.67;11.73;;;12.70;99.90;;;;;;5056858;28;20475;-65
2021/10/31 01:49:02;;;;;;;17.67;11.20;;;12.70;99.90;;;;;;5059494;28;20480;-69
2021/10/31 01:51:35;;;;;;;20.77;10.70;;;12.70;99.90;;;;;;5059390;28;20475;-64
2021/10/31 01:54:06;;;;;;;17.53;10.77;;;12.70;99.90;;;;;;5059202;28;20439;-66
2021/10/31 01:56:36;;;;;;;18.63;12.80;;;12.70;99.90;;;;;;5056799;28;20471;-65
2021/10/31 01:59:07;;;;;;;13.90;10.33;;;12.70;99.90;;;;;;5056612;28;20521;-65
2021/10/31 02:01:36;;;;;;;19.30;11.57;;;12.60;99.90;;;;;;5056340;28;20463;-66
2021/10/31 02:04:06;;;;;;;19.63;10.90;;;12.70;99.90;;;;;;5056367;28;20459;-66
2021/10/31 02:06:38;;;;;;;17.10;10.87;;;12.70;99.90;;;;;;5058279;28;20473;-68
2021/10/31 02:09:07;;;;;;;16.03;11.13;;;12.70;99.90;;;;;;5058823;28;20431;-65
2021/10/31 02:11:35;;;;;;;16.70;10.87;;;12.60;99.90;;;;;;5056202;28;20439;-65
2021/10/31 02:14:03;;;;;;;17.57;11.43;;;12.60;99.90;;;;;;5056152;28;20470;-66
2021/10/31 02:16:30;;;;;;;18.77;12.10;;;12.60;99.90;;;;;;5056234;28;20572;-66
2021/10/31 02:19:02;;;;;;;18.73;10.70;;;12.60;99.90;;;;;;5056033;28;20471;-61
2021/10/31 02:21:31;;;;;;;16.00;11.00;;;12.60;99.90;;;;;;5056154;28;20446;-65
2021/10/31 02:24:00;;;;;;;14.97;9.77;;;12.50;99.90;;;;;;5055923;28;20792;-60
2021/10/31 02:26:27;;;;;;;18.90;10.23;;;12.50;99.90;;;;;;5056084;28;20454;-66
2021/10/31 02:28:55;;;;;;;16.37;11.27;;;12.50;99.90;;;;;;5055462;28;20810;-64
2021/10/31 02:31:22;;;;;;;11.63;9.90;;;12.50;99.90;;;;;;5056764;28;20526;-66
2021/10/31 02:33:49;;;;;;;12.90;9.60;;;12.50;99.90;;;;;;5059238;28;20443;-65
2021/10/31 02:36:16;;;;;;;16.80;10.83;;;12.50;99.90;;;;;;5055026;28;20988;-62
2021/10/31 02:38:44;;;;;;;19.80;11.63;;;12.50;99.90;;;;;;5054843;28;20458;-64
2021/10/31 02:41:13;;;;;;;15.90;10.93;;;12.50;99.90;;;;;;5057948;28;20479;-66
2021/10/31 02:43:40;;;;;;;14.93;10.20;;;12.50;99.90;;;;;;5055664;28;20489;-66
2021/10/31 02:46:06;;;;;;;13.53;11.00;;;12.50;99.90;;;;;;5055569;28;20475;-63
2021/10/31 02:48:34;;;;;;;17.73;10.30;;;12.50;99.90;;;;;;5055601;28;20466;-65
2021/10/31 02:51:08;;;;;;;15.80;9.30;;;12.50;99.90;;;;;;5055437;28;20454;-65
2021/10/31 02:53:41;;;;;;;13.07;9.03;;;12.50;99.90;;;;;;5055650;28;20501;-67
2021/10/31 02:56:19;;;;;;;14.83;9.73;;;12.50;99.90;;;;;;5057374;28;20438;-64
2021/10/31 02:58:49;;;;;;;15.40;9.30;;;12.50;99.90;;;;;;5055705;28;20481;-65
2021/10/31 03:01:17;;;;;;;15.40;9.83;;;12.60;99.90;;;;;;5055511;28;20455;-66
2021/10/31 03:03:44;;;;;;;18.03;11.60;;;12.60;99.90;;;;;;5054525;28;20979;-62
2021/10/31 03:06:12;;;;;;;14.60;9.70;;;12.60;99.90;;;;;;5054845;28;20435;-65
2021/10/31 03:08:40;;;;;;;16.80;11.00;;;12.60;99.90;;;;;;5055134;28;20478;-59
2021/10/31 03:11:09;;;;;;;14.80;9.50;;;12.70;99.90;;;;;;5054834;28;20455;-64
2021/10/31 03:13:38;;;;;;;11.70;8.30;;;12.70;99.90;;;;;;5055236;28;20459;-63
2021/10/31 03:16:05;;;;;;;17.50;10.37;;;12.70;99.90;;;;;;5055034;28;20773;-64
2021/10/31 03:18:32;;;;;;;13.73;9.47;;;12.70;99.90;;;;;;5055241;28;20486;-65
2021/10/31 03:21:01;;;;;;;14.07;8.63;;;12.70;99.90;;;;;;5056643;28;20451;-66
2021/10/31 03:23:28;;;;;;;13.83;9.90;;;12.70;99.90;;;;;;5056144;28;20540;-64
2021/10/31 03:25:56;;;;;;;13.63;9.63;;;12.70;99.90;;;;;;5055187;28;20474;-61
2021/10/31 03:28:22;;;;;;;12.93;8.60;;;12.70;99.90;;;;;;5055165;28;20470;-64
2021/10/31 03:30:53;;;;;;;13.43;9.20;;;12.70;99.90;;;;;;5054727;28;20471;-64
2021/10/31 03:33:19;;;;;;;13.27;8.73;;;12.70;99.90;;;;;;5054842;28;20447;-60
2021/10/31 03:35:46;;;;;;;12.87;8.67;;;12.70;99.90;;;;;;5054456;28;20470;-64
2021/10/31 03:38:13;;;;;;;15.37;9.07;;;12.60;99.90;;;;;;5054979;28;20436;-63
2021/10/31 03:40:40;;;;;;;13.43;9.87;;;12.70;99.90;;;;;;5054620;28;20451;-60
2021/10/31 03:43:06;;;;;;;14.80;9.70;;;12.70;99.90;;;;;;5055111;28;20463;-60
2021/10/31 03:45:33;;;;;;;13.07;8.43;;;12.80;99.90;;;;;;5055004;28;20451;-66
2021/10/31 03:48:03;;;;;;;12.13;7.67;;;12.70;99.90;;;;;;5055586;28;20479;-65
2021/10/31 03:50:31;;;;;;;11.57;8.97;;;12.80;99.90;;;;;;5055366;28;20447;-63
2021/10/31 03:52:58;;;;;;;12.93;9.10;;;12.80;99.90;;;;;;5054675;28;20475;-64
2021/10/31 03:55:26;;;;;;;16.40;9.00;;;12.80;99.90;;;;;;5054836;28;20436;-66
2021/10/31 03:57:55;;;;;;;13.43;7.90;;;12.90;99.90;;;;;;5054536;28;20458;-62
2021/10/31 04:00:21;;;;;;;10.33;7.80;;;12.90;99.90;;;;;;5054965;28;20431;-63
2021/10/31 04:02:48;;;;;;;15.13;8.67;;;12.90;99.90;;;;;;5054812;28;20463;-64
2021/10/31 04:05:17;;;;;;;15.03;8.50;;;12.90;99.90;;;;;;5055312;28;20467;-59
2021/10/31 04:07:43;;;;;;;12.50;7.43;;;12.90;99.90;;;;;;5058889;28;20459;-63
2021/10/31 04:10:11;;;;;;;11.83;7.37;;;12.90;99.90;;;;;;5062599;28;20834;-65
2021/10/31 04:12:37;;;;;;;10.73;7.47;;;12.90;99.90;;;;;;5061569;28;20958;-66
2021/10/31 04:15:05;;;;;;;12.43;7.57;;;12.90;99.90;;;;;;5059716;28;20524;-65
2021/10/31 04:17:32;;;;;;;12.03;8.37;;;12.90;99.90;;;;;;5058728;28;20485;-61
2021/10/31 04:19:59;;;;;;;10.53;7.27;;;12.90;99.90;;;;;;5058390;28;21047;-65
2021/10/31 04:22:28;;;;;;;9.27;6.90;;;12.90;99.90;;;;;;5058306;28;20522;-64
2021/10/31 04:24:55;;;;;;;12.73;7.10;;;12.90;99.90;;;;;;5058257;28;20486;-62
2021/10/31 04:27:22;;;;;;;16.73;8.67;;;12.90;99.90;;;;;;5058398;28;20454;-62
2021/10/31 04:29:48;;;;;;;15.10;8.13;;;12.90;99.90;;;;;;5058837;28;20504;-65
2021/10/31 04:32:15;;;;;;;9.57;6.70;;;12.90;99.90;;;;;;5057929;28;20475;-65
2021/10/31 04:34:42;;;;;;;10.87;7.13;;;12.90;99.90;;;;;;5058145;28;20439;-64
2021/10/31 04:37:08;;;;;;;11.93;7.50;;;12.90;99.90;;;;;;5058078;28;20467;-64
2021/10/31 04:39:36;;;;;;;11.77;7.50;;;12.90;99.90;;;;;;5059368;28;20455;-64
2021/10/31 04:42:05;;;;;;;16.07;8.97;;;12.90;99.90;;;;;;5059092;28;20450;-64
2021/10/31 04:44:33;;;;;;;17.40;8.17;;;12.90;99.90;;;;;;5057901;28;20489;-62
2021/10/31 04:47:01;;;;;;;11.93;7.90;;;12.90;99.90;;;;;;5057926;28;20476;-64
2021/10/31 04:49:31;;;;;;;12.83;7.60;;;12.90;99.90;;;;;;5058075;28;20509;-64
2021/10/31 04:51:58;;;;;;;14.97;8.47;;;12.90;99.90;;;;;;5057722;28;20776;-63
2021/10/31 04:54:25;;;;;;;12.40;8.07;;;12.90;99.90;;;;;;5057484;28;20471;-64
2021/10/31 04:56:55;;;;;;;11.50;7.50;;;12.90;99.90;;;;;;5057883;28;20456;-64
2021/10/31 04:59:21;;;;;;;11.10;7.53;;;12.80;99.90;;;;;;5057350;28;20521;-62
2021/10/31 05:01:49;;;;;;;10.10;7.33;;;12.80;99.90;;;;;;5057346;28;20467;-63
2021/10/31 05:04:17;;;;;;;17.37;8.13;;;12.80;99.90;;;;;;5057348;28;20510;-64
2021/10/31 05:06:44;;;;;;;10.87;7.50;;;12.80;99.90;;;;;;5059829;28;20466;-62
2021/10/31 05:09:10;;;;;;;14.03;9.10;;;12.80;99.90;;;;;;5057933;28;20459;-62
2021/10/31 05:11:37;;;;;;;11.03;7.47;;;12.80;99.90;;;;;;5057507;28;21010;-63
2021/10/31 05:14:05;;;;;;;13.13;7.60;;;12.90;99.90;;;;;;5057318;28;20469;-63
2021/10/31 05:16:35;;;;;;;17.93;8.30;;;12.90;99.90;;;;;;5056949;28;20474;-64
2021/10/31 05:19:02;;;;;;;13.50;7.13;;;12.90;99.90;;;;;;5056607;28;20517;-63
2021/10/31 05:21:29;;;;;;;12.53;7.90;;;13.00;99.90;;;;;;5057012;28;20479;-64
2021/10/31 05:23:55;;;;;;;13.10;8.63;;;13.00;99.90;;;;;;5057278;28;20513;-64
2021/10/31 05:26:24;;;;;;;10.70;8.03;;;12.90;99.90;;;;;;5057139;28;20443;-63
2021/10/31 05:28:50;;;;;;;12.43;7.60;;;12.90;99.90;;;;;;5056674;28;20452;-64
2021/10/31 05:31:20;;;;;;;11.03;7.97;;;12.90;99.90;;;;;;5057075;28;20528;-62
2021/10/31 05:33:48;;;;;;;10.90;7.47;;;12.90;99.90;;;;;;5056807;28;20467;-64
2021/10/31 05:36:15;;;;;;;13.60;9.07;;;12.90;99.90;;;;;;5057145;28;20845;-65
2021/10/31 05:38:41;;;;;;;11.30;8.47;;;12.90;99.90;;;;;;5057024;28;20467;-64
2021/10/31 05:41:08;;;;;;;15.50;9.00;;;12.90;99.90;;;;;;5058284;28;20517;-62
2021/10/31 05:43:35;;;;;;;15.63;7.60;;;12.90;99.90;;;;;;5057522;28;20467;-65
2021/10/31 05:46:02;;;;;;;12.37;7.13;;;12.90;99.90;;;;;;5057153;28;20477;-64
2021/10/31 05:48:30;;;;;;;13.70;8.47;;;12.90;99.90;;;;;;5056696;28;20544;-64
2021/10/31 05:50:57;;;;;;;16.67;8.23;;;12.90;99.90;;;;;;5056522;28;20794;-65
2021/10/31 05:53:24;;;;;;;14.50;8.70;;;12.90;99.90;;;;;;5056496;28;20497;-62
2021/10/31 05:55:52;;;;;;;11.10;7.40;;;12.90;99.90;;;;;;5056353;28;20436;-63
2021/10/31 05:58:18;;;;;;;12.57;7.47;;;12.90;99.90;;;;;;5056463;28;20471;-60
2021/10/31 06:00:45;;;;;;;12.37;8.40;;;12.90;99.90;;;;;;5056628;28;20431;-65
2021/10/31 06:03:11;;;;;;;13.80;8.57;;;12.90;99.90;;;;;;5056342;28;20467;-65
2021/10/31 06:05:43;;;;;;;18.17;9.43;;;12.80;99.90;;;;;;5056404;28;20463;-64
2021/10/31 06:08:14;;;;;;;18.13;8.67;;;12.70;99.90;;;;;;5057362;28;20441;-67
2021/10/31 06:10:41;;;;;;;20.60;10.03;;;12.60;99.90;;;;;;5058166;28;20428;-65
2021/10/31 06:13:09;;;;;;;14.30;9.83;;;12.60;99.90;;;;;;5056391;28;20443;-65
2021/10/31 06:15:36;;;;;;;13.90;8.50;;;12.50;99.90;;;;;;5056196;28;20428;-65
2021/10/31 06:18:03;;;;;;;14.97;8.50;;;12.50;99.90;;;;;;5056171;28;20447;-62
2021/10/31 06:20:32;;;;;;;13.70;9.50;;;12.50;99.90;;;;;;5055991;28;20912;-64
2021/10/31 06:23:00;;;;;;;11.77;8.87;;;12.50;99.90;;;;;;5055913;28;20509;-60
2021/10/31 06:25:26;;;;;;;12.97;8.23;;;12.50;99.90;;;;;;5056710;28;20540;-66
2021/10/31 06:27:53;;;;;;;17.33;8.60;;;12.50;99.90;;;;;;5057128;28;20943;-67
2021/10/31 06:30:20;;;;;;;12.60;9.00;;;12.50;99.90;;;;;;5058899;28;20835;-67
2021/10/31 06:32:47;;;;;;;11.97;7.67;;;12.50;99.90;;;;;;5059285;28;20512;-68
2021/10/31 06:35:14;;;;;;;16.70;8.57;;;12.50;99.90;;;;;;5057379;28;20439;-67
2021/10/31 06:37:41;;;;;;;14.20;9.37;;;12.50;99.90;;;;;;5056459;28;20443;-65
2021/10/31 06:40:10;;;;;;;13.53;9.10;;;12.50;99.90;;;;;;5055645;28;21033;-65
2021/10/31 06:42:38;;;;;;;13.33;7.77;;;12.40;99.90;;;;;;5055814;28;20443;-67
2021/10/31 06:45:05;;;;;;;15.90;9.10;;;12.50;99.90;;;;;;5055528;28;20843;-65
2021/10/31 06:47:32;;;;;;;14.43;9.60;;;12.60;99.90;;;;;;5055662;28;20459;-65
2021/10/31 06:49:59;;;;;;;13.33;9.47;;;12.50;99.90;;;;;;5056338;28;20442;-65
2021/10/31 06:52:25;;;;;;;17.63;10.83;;;12.60;99.90;;;;;;5055595;28;20451;-65
2021/10/31 06:54:52;;;;;;;15.53;9.40;;;12.60;99.90;;;;;;5055562;28;20455;-65
2021/10/31 06:57:20;;;;;;;17.70;10.80;;;12.70;99.90;;;;;;5049179;28;20561;-65
2021/10/31 06:59:47;;;;;;;13.93;9.70;;;12.70;99.90;;;;;;5052281;28;20486;-65
2021/10/31 07:02:14;;;;;;;18.20;10.87;;;12.70;99.90;;;;;;5055352;28;20924;-64
2021/10/31 07:04:41;;;;;;;16.37;10.07;;;12.70;99.90;;;;;;5054990;28;20479;-64
2021/10/31 07:07:08;;;;;;;15.37;9.13;;;12.80;99.90;;;;;;5020029;28;20441;-67
2021/10/31 07:09:35;;;;;;;14.70;9.53;;;12.90;99.90;;;;;;5017477;28;20950;-65
2021/10/31 07:12:02;;;;;;;15.70;8.53;;;13.00;99.90;;;;;;5017255;28;20453;-65
2021/10/31 07:14:30;;;;;;;11.23;7.73;;;13.00;99.90;;;;;;5017291;28;21024;-60
2021/10/31 07:16:56;;;;;;;15.30;9.77;;;13.10;99.90;;;;;;5027361;28;20436;-63
2021/10/31 07:19:23;;;;;;;14.33;9.13;;;13.30;99.90;;;;;;5044322;28;20571;-58
2021/10/31 07:21:50;;;;;;;14.97;9.67;;;13.40;99.90;;;;;;5043804;28;20831;-61
2021/10/31 07:24:17;;;;;;;17.33;9.33;;;13.50;99.90;;;;;;5042840;28;20464;-63
2021/10/31 07:26:45;;;;;;;17.57;10.03;;;13.50;99.90;;;;;;5042953;28;20487;-64
2021/10/31 07:29:11;;;;;;;13.00;8.57;;;13.60;99.90;;;;;;5041844;28;20953;-62
2021/10/31 07:31:44;;;;;;;10.90;8.40;;;13.60;99.90;;;;;;5042452;28;20425;-64
2021/10/31 07:34:12;;;;;;;15.90;8.60;;;13.60;99.90;;;;;;5042768;28;20959;-65
2021/10/31 07:36:41;;;;;;;16.10;9.17;;;13.60;99.90;;;;;;5042706;28;20448;-65
2021/10/31 07:39:09;;;;;;;14.13;8.90;;;13.70;99.90;;;;;;5037788;28;20485;-67
2021/10/31 07:41:38;;;;;;;14.93;8.57;;;13.80;99.90;;;;;;5040616;28;20467;-62
2021/10/31 07:44:06;;;;;;;13.23;8.53;;;13.80;99.90;;;;;;5042895;28;20533;-65
2021/10/31 07:46:34;;;;;;;15.27;8.93;;;13.90;99.90;;;;;;5042373;28;20525;-65
2021/10/31 07:49:03;;;;;;;12.67;8.00;;;14.00;99.90;;;;;;5042226;28;20463;-66
2021/10/31 07:51:30;;;;;;;15.20;9.20;;;14.10;99.90;;;;;;5042526;28;20440;-65
2021/10/31 07:53:56;;;;;;;14.43;8.40;;;14.20;99.90;;;;;;5042458;28;20466;-65
2021/10/31 07:56:26;;;;;;;14.90;7.40;;;14.20;99.90;;;;;;5042728;28;20804;-65
2021/10/31 07:58:55;;;;;;;16.20;8.90;;;14.20;99.90;;;;;;5060761;28;20433;-55
2021/10/31 08:01:23;;;;;;;12.30;9.03;;;14.20;99.90;;;;;;5061223;28;20465;-64
2021/10/31 08:03:54;;;;;;;10.93;7.67;;;14.30;99.90;;;;;;5060885;28;20467;-64
2021/10/31 08:06:23;;;;;;;12.30;8.80;;;14.30;99.90;;;;;;5061247;28;20510;-59
2021/10/31 08:08:50;;;;;;;13.57;8.50;;;14.40;99.90;;;;;;5129889;22;20482;-68
2021/10/31 08:11:17;;;;;;;11.53;8.17;;;14.40;99.90;;;;;;5097328;28;20480;-68
2021/10/31 08:13:45;;;;;;;12.37;9.50;;;14.50;99.90;;;;;;5097510;28;20533;-70
2021/10/31 08:16:11;;;;;;;11.23;8.30;;;14.50;99.90;;;;;;5097321;28;20430;-68
2021/10/31 08:18:38;;;;;;;12.40;8.73;;;14.60;99.90;;;;;;5090897;28;20801;-68
2021/10/31 08:21:05;;;;;;;13.70;8.53;;;14.60;99.90;;;;;;5096367;28;20444;-67
2021/10/31 08:23:33;;;;;;;16.70;8.93;;;14.60;99.90;;;;;;5097930;28;20442;-70
2021/10/31 08:26:01;;;;;;;15.50;7.73;;;14.70;99.90;;;;;;5098005;28;20504;-68
2021/10/31 08:28:30;;;;;;;13.77;8.90;;;14.80;99.90;;;;;;5098979;28;20454;-65
2021/10/31 08:30:58;;;;;;;17.43;9.57;;;14.90;99.90;;;;;;5098975;28;20470;-67
2021/10/31 08:33:27;;;;;;;18.10;10.80;;;14.80;99.90;;;;;;5098977;28;20441;-69
2021/10/31 08:35:54;;;;;;;14.00;9.93;;;14.90;99.90;;;;;;5099224;28;20441;-72
2021/10/31 08:38:21;;;;;;;15.60;9.73;;;14.90;99.90;;;;;;5098972;28;20525;-73
2021/10/31 08:40:51;;;;;;;17.33;10.33;;;15.00;99.90;;;;;;5098658;28;20471;-73
2021/10/31 08:43:19;;;;;;;12.53;8.67;;;15.00;99.90;;;;;;5098343;28;20969;-69
2021/10/31 08:45:47;;;;;;;13.70;9.60;;;15.10;99.90;;;;;;5098729;28;20489;-72
2021/10/31 08:48:14;;;;;;;14.37;9.90;;;15.10;99.90;;;;;;5098961;28;20479;-68
2021/10/31 08:50:41;;;;;;;16.30;11.20;;;15.10;99.90;;;;;;5098599;28;20453;-70
2021/10/31 08:53:08;;;;;;;20.00;11.87;;;15.00;99.90;;;;;;5096819;28;20469;-72
2021/10/31 08:55:36;;;;;;;20.67;10.90;;;15.10;99.90;;;;;;5098265;28;20475;-70
2021/10/31 08:58:06;;;;;;;14.70;10.33;;;15.10;99.90;;;;;;5098198;28;20456;-70
2021/10/31 09:00:33;;;;;;;19.37;9.93;;;15.10;99.90;;;;;;5098487;28;20506;-69
2021/10/31 09:03:00;;;;;;;12.73;9.20;;;15.20;99.90;;;;;;5098478;28;20469;-72
2021/10/31 09:05:27;;;;;;;13.40;9.50;;;15.40;99.90;;;;;;5093233;28;20478;-68
2021/10/31 09:07:54;;;;;;;13.40;9.13;;;15.40;99.90;;;;;;5095037;28;20426;-72
2021/10/31 09:10:24;;;;;;;15.90;9.40;;;15.50;99.90;;;;;;5094482;28;20470;-66
2021/10/31 09:12:53;;;;;;;15.83;9.83;;;15.60;99.90;;;;;;5094808;28;20442;-58
2021/10/31 09:15:21;;;;;;;15.70;9.93;;;15.70;99.90;;;;;;5094882;28;20527;-72
2021/10/31 09:17:48;;;;;;;13.33;9.10;;;15.80;99.90;;;;;;5094966;28;20443;-68
2021/10/31 09:20:16;;;;;;;14.10;8.97;;;16.00;99.90;;;;;;5095618;28;20492;-67
2021/10/31 09:22:43;;;;;;;12.90;8.30;;;16.20;99.90;;;;;;5096250;28;20442;-68
2021/10/31 09:25:10;;;;;;;12.30;9.13;;;16.70;99.90;;;;;;5095664;28;20482;-65
2021/10/31 09:27:37;;;;;;;13.00;9.20;;;17.90;99.90;;;;;;5095438;28;20455;-67
2021/10/31 09:30:06;;;;;;;13.53;7.77;;;19.40;99.90;;;;;;5093875;28;20486;-72
2021/10/31 09:32:48;;;;;;;13.47;8.83;;;20.60;99.90;;;;;;5093389;28;20469;-72
2021/10/31 09:35:18;;;;;;;12.43;9.50;;;21.70;99.90;;;;;;5074860;28;20481;-72
2021/10/31 09:37:46;;;;;;;14.47;9.63;;;23.00;99.90;;;;;;5091173;28;20434;-71
2021/10/31 09:40:14;;;;;;;11.83;8.03;;;24.00;97.40;;;;;;5091560;28;20538;-64
2021/10/31 09:42:41;;;;;;;13.37;8.50;;;24.50;93.40;;;;;;5085473;28;20474;-69
2021/10/31 09:45:09;;;;;;;14.00;9.30;;;24.70;91.30;;;;;;5077287;28;20796;-66
2021/10/31 09:47:38;;;;;;;12.67;9.87;;;25.00;89.20;;;;;;5076834;28;20924;-69
2021/10/31 09:50:06;;;;;;;10.87;9.47;;;25.20;86.10;;;;;;5077771;28;20946;-64
2021/10/31 09:52:32;;;;;;;12.93;9.13;;;25.40;84.20;;;;;;5077534;28;20521;-69
2021/10/31 09:55:00;;;;;;;13.80;9.60;;;25.90;81.10;;;;;;5077539;28;20466;-66
2021/10/31 09:57:26;;;;;;;11.03;8.73;;;26.30;78.40;;;;;;5077438;28;20450;-62
2021/10/31 09:59:54;;;;;;;14.13;9.53;;;26.60;75.60;;;;;;5077285;28;20531;-69
2021/10/31 10:05:17;;;;;;;11.10;9.40;;;26.70;71.50;;;;;;5064148;28;20548;-64
2021/10/31 10:07:44;;;;;;;11.90;9.63;;;26.70;71.50;;;;;;5077856;28;20461;-69
2021/10/31 10:10:13;;;;;;;12.03;8.40;;;26.80;70.40;;;;;;5078403;28;20435;-70
2021/10/31 10:12:40;;;;;;;11.80;9.70;;;26.90;69.10;;;;;;5077806;28;20492;-69
2021/10/31 10:15:10;;;;;;;14.80;9.60;;;26.60;69.30;;;;;;5078207;28;20462;-70
2021/10/31 10:17:48;;;;;;;11.83;8.80;;;26.30;69.90;;;;;;5078734;28;20434;-68
2021/10/31 10:20:17;;;;;;;12.20;8.57;;;26.40;69.80;;;;;;5078832;28;20453;-68
2021/10/31 10:22:45;;;;;;;13.53;8.33;;;26.40;70.30;;;;;;5078953;28;20504;-70
2021/10/31 10:25:13;;;;;;;9.80;7.93;;;26.40;69.70;;;;;;5078742;28;20503;-69
2021/10/31 10:27:48;;;;;;;8.30;7.37;;;26.50;69.20;;;;;;5078362;28;20450;-65
2021/10/31 10:30:19;;;;;;;12.10;7.40;;;26.60;69.00;;;;;;5078345;28;20441;-68
2021/10/31 10:32:50;;;;;;;11.50;8.57;;;26.60;68.90;;;;;;5078004;28;20439;-69
2021/10/31 10:35:20;;;;;;;11.87;8.00;;;26.50;68.90;;;;;;5078154;28;20438;-69
2021/10/31 10:37:47;;;;;;;10.27;8.20;;;26.40;68.90;;;;;;5078057;28;20465;-68
2021/10/31 10:40:20;;;;;;;8.17;6.87;;;26.20;69.70;;;;;;5077937;28;20931;-68
2021/10/31 10:42:53;;;;;;;10.43;7.13;;;26.10;70.10;;;;;;5078058;28;20445;-67
2021/10/31 10:45:23;;;;;;;8.80;7.23;;;25.80;71.40;;;;;;5077404;28;20426;-65
2021/10/31 10:47:53;;;;;;;9.17;7.40;;;25.60;72.00;;;;;;5078488;28;20455;-69
2021/10/31 10:50:23;;;;;;;10.67;8.07;;;25.60;72.30;;;;;;5078239;28;20431;-66
2021/10/31 10:52:51;;;;;;;11.37;8.07;;;25.40;72.40;;;;;;5078276;28;20500;-62
2021/10/31 10:55:20;;;;;;;12.00;8.40;;;25.00;73.20;;;;;;5077612;28;20477;-68
2021/10/31 10:57:51;;;;;;;11.87;7.67;;;24.50;74.90;;;;;;5078037;28;20477;-70
2021/10/31 11:00:20;;;;;;;10.33;7.83;;;24.20;75.90;;;;;;5077312;28;20442;-64
2021/10/31 11:02:48;;;;;;;14.73;7.30;;;23.30;78.00;;;;;;5077353;28;20474;-71
2021/10/31 11:05:19;;;;;;;7.37;6.30;;;22.70;80.40;;;;;;5077683;28;20477;-69
2021/10/31 11:07:49;;;;;;;11.20;7.27;;;22.10;84.20;;;;;;5076569;28;20871;-75
2021/10/31 11:10:21;;;;;;;10.10;7.17;;;21.60;85.70;;;;;;5075855;28;20858;-77
2021/10/31 11:12:51;;;;;;;15.83;7.83;;;21.30;87.80;;;;;;5075848;28;20493;-75
2021/10/31 11:15:19;;;;;;;9.70;6.10;;;20.80;89.80;;;;;;5074761;28;20430;-73
2021/10/31 11:17:49;;;;;;;13.73;7.60;;;20.50;90.90;;;;;;5075073;28;20513;-73
2021/10/31 11:20:18;;;;;;;9.80;7.00;;;20.40;91.70;;;;;;5075182;28;20450;-67
2021/10/31 11:22:48;;;;;;;12.07;7.93;;;20.30;92.50;;;;;;5075461;28;20478;-75
2021/10/31 11:25:17;;;;;;;10.33;7.37;;;20.20;93.20;;;;;;5075233;28;20442;-75
2021/10/31 11:27:45;;;;;;;10.10;6.83;;;20.10;94.00;;;;;;5075253;28;20494;-74
2021/10/31 11:30:13;;;;;;;11.47;7.20;;;20.00;94.80;;;;;;5075547;28;20496;-75
2021/10/31 11:32:41;;;;;;;8.07;6.50;;;19.80;95.90;;;;;;5075810;28;20996;-76
2021/10/31 11:35:10;;;;;;;9.77;7.07;;;19.60;97.00;;;;;;5075432;28;20513;-76
2021/10/31 11:37:43;;;;;;;11.30;7.83;;;19.50;98.30;;;;;;5075306;28;20470;-75
2021/10/31 11:40:13;;;;;;;8.30;7.13;;;19.50;99.40;;;;;;5075077;28;20424;-75
2021/10/31 11:42:47;;;;;;;15.57;7.77;;;19.50;99.90;;;;;;5075526;28;20527;-74
2021/10/31 11:45:16;;;;;;;11.60;6.73;;;19.50;99.90;;;;;;5075267;28;20441;-74
2021/10/31 11:47:46;;;;;;;14.27;7.93;;;19.40;99.90;;;;;;5075111;28;20478;-75
2021/10/31 11:50:20;;;;;;;11.17;6.90;;;19.30;99.90;;;;;;5075202;28;20508;-74
2021/10/31 11:52:55;;;;;;;12.23;6.40;;;19.30;99.90;;;;;;5074900;28;20467;-75
2021/10/31 11:55:50;;;;;;;7.97;5.90;;;19.20;99.90;;;;;;5075055;28;20465;-76
2021/10/31 11:58:59;;;;;;;8.03;5.27;;;19.20;99.90;;;;;;5075062;28;20535;-74
2021/10/31 12:01:35;;;;;;;8.90;6.90;;;19.10;99.90;;;;;;5075179;28;20475;-74
2021/10/31 12:04:04;;;;;;;9.40;5.53;;;19.10;99.90;;;;;;5074460;28;20464;-74
2021/10/31 12:06:50;;;;;;;11.00;6.47;;;19.00;99.90;;;;;;5074475;28;20568;-75
2021/10/31 12:09:38;;;;;;;9.07;6.43;;;19.10;99.90;;;;;;5074936;28;20457;-75
2021/10/31 12:12:22;;;;;;;13.40;6.67;;;19.20;99.90;;;;;;5075074;28;20447;-75
2021/10/31 12:14:52;;;;;;;9.23;6.20;;;19.20;99.90;;;;;;5074843;28;20423;-75
2021/10/31 12:17:20;;;;;;;9.23;6.60;;;19.20;99.90;;;;;;5075305;28;20521;-74
2021/10/31 12:19:48;;;;;;;11.70;6.40;;;19.20;99.90;;;;;;5075011;28;20450;-71
2021/10/31 12:22:16;;;;;;;8.80;6.43;;;19.30;99.90;;;;;;5074869;28;20499;-74
2021/10/31 12:24:45;;;;;;;11.57;7.50;;;19.30;99.90;;;;;;5074799;28;20921;-71
2021/10/31 12:27:15;;;;;;;10.60;7.57;;;19.50;99.90;;;;;;5077126;28;20547;-74
2021/10/31 12:29:53;;;;;;;7.30;6.23;;;19.50;99.90;;;;;;5078534;28;20450;-73
2021/10/31 12:32:21;;;;;;;10.23;7.70;;;19.60;99.90;;;;;;5077501;28;20448;-72
2021/10/31 12:34:49;;;;;;;12.97;7.63;;;19.60;99.90;;;;;;5078787;28;20806;-75
2021/10/31 12:37:25;;;;;;;9.17;6.30;;;19.50;99.90;;;;;;5077992;28;20446;-75
2021/10/31 12:39:56;;;;;;;9.87;7.10;;;19.50;99.90;;;;;;5078151;28;20511;-74
2021/10/31 12:42:25;;;;;;;9.27;7.00;;;19.40;99.90;;;;;;5078189;28;20456;-71
2021/10/31 12:44:59;;;;;;;10.13;7.10;;;19.50;99.90;;;;;;5079815;28;20442;-76
2021/10/31 12:47:36;;;;;;;13.97;8.60;;;19.40;99.90;;;;;;5079581;28;20477;-74
2021/10/31 12:50:09;;;;;;;9.13;5.97;;;19.30;99.90;;;;;;5080349;28;20474;-78